Othello — LXOD — position and weather

sailwx.info

Track history (hours):
 
Tides and Currents Weather Stations Pressure Air Temp Water Temp Dewpoint Dewpoint Depression Visibility Wind Speed Wind Dir Waves Ship Positions

Othello

Last reported at 2018-Mar-20 09:26 UTC. Time now 2018-Jun-20 05:35 UTC.
Position N 51°41' E 004°34'.
Warning: this ship's position is months out of date.

Length 104 m; draft 6.5 m.

Type: Tanker. MMSI: 253279000.

Date/timePositionNaut miles runAvg speedWind from/ knotsBaromVisibWave heightAir tempDewpointWater temp
2018-Mar-20 09:26N 51°41' E 004°34'0 0.0
2018-Mar-20 08:59N 51°41' E 004°34'0 0.0
2018-Mar-20 08:29N 51°41' E 004°34'0 0.0
2018-Mar-20 07:59N 51°41' E 004°34'0 0.0
2018-Mar-20 07:09N 51°41' E 004°34'0 1.0
2018-Mar-20 07:00N 51°42' E 004°34'3 6.0
2018-Mar-20 06:31N 51°44' E 004°38'5 9.7
2018-Mar-20 06:00N 51°48' E 004°35'5 9.6
2018-Mar-20 05:30N 51°50' E 004°28'510.7
2018-Mar-20 05:00N 51°52' E 004°20'5 9.3
2018-Mar-20 04:31N 51°55' E 004°14'714.6
2018-Mar-20 04:01N 51°59' E 004°04'714.1
2018-Mar-20 03:31N 52°00' E 003°53'4 8.4
2018-Mar-20 03:00N 52°01' E 003°46'510.2
2018-Mar-20 02:30N 52°04' E 003°40'611.1
2018-Mar-20 01:59N 52°07' E 003°31'611.0
2018-Mar-20 01:29N 52°09' E 003°23'510.5
2018-Mar-20 01:00N 52°12' E 003°16'510.9
2018-Mar-20 00:30N 52°15' E 003°09'611.0
2018-Mar-19 23:58N 52°19' E 003°01'511.0
2018-Mar-19 23:30N 52°21' E 002°54'4011.5
2018-Mar-19 20:00N 52°44' E 001°60'612.0
2018-Mar-19 19:30N 52°47' E 001°52'611.9
2018-Mar-19 19:00N 52°51' E 001°45'611.7
2018-Mar-19 18:30N 52°55' E 001°37'612.0
2018-Mar-19 18:00N 52°59' E 001°29'612.9
2018-Mar-19 17:30N 53°04' E 001°23'612.5
2018-Mar-19 17:00N 53°10' E 001°18'612.3
2018-Mar-19 16:30N 53°15' E 001°13'712.2
2018-Mar-19 15:56N 53°21' E 001°07'4711.0
2018-Mar-19 11:39N 53°55' E 000°12'210.9
2018-Mar-19 11:30N 53°56' E 000°11'510.8
2018-Mar-19 11:00N 54°01' E 000°06'510.7
2018-Mar-19 10:30N 54°06' E 000°02'5 9.7
2018-Mar-19 10:00N 54°10' W 000°03'510.1
2018-Mar-19 09:30N 54°14' W 000°08'510.8
2018-Mar-19 09:00N 54°18' W 000°13'510.9
2018-Mar-19 08:30N 54°23' W 000°19'611.2
2018-Mar-19 08:00N 54°27' W 000°24'611.1
2018-Mar-19 07:30N 54°32' W 000°30'2111.3
2018-Mar-19 05:37N 54°48' W 000°54'111.5
2018-Mar-19 05:30N 54°49' W 000°55'611.5
2018-Mar-19 05:00N 54°53' W 001°02'611.7
2018-Mar-19 04:30N 54°58' W 001°07'612.2
2018-Mar-19 04:00N 55°04' W 001°10'611.9
2018-Mar-19 03:30N 55°10' W 001°13'611.7
2018-Mar-19 03:00N 55°15' W 001°17'611.6
2018-Mar-19 02:30N 55°21' W 001°20'611.6
2018-Mar-19 02:00N 55°26' W 001°23'611.3
2018-Mar-19 01:30N 55°32' W 001°26'611.1
2018-Mar-19 01:00N 55°37' W 001°29'5 9.4
2018-Mar-19 00:30N 55°41' W 001°33'4 8.3
2018-Mar-19 00:00N 55°44' W 001°39'4 8.2
2018-Mar-18 23:30N 55°47' W 001°44'4 8.1
2018-Mar-18 23:00N 55°50' W 001°49'4 7.9
2018-Mar-18 22:30N 55°52' W 001°54'3 6.9
2018-Mar-18 22:00N 55°55' W 001°58'3 6.7
2018-Mar-18 21:30N 55°57' W 002°03'4 7.0
2018-Mar-18 21:00N 55°59' W 002°08'4 7.3
2018-Mar-18 20:30N 56°01' W 002°13'4 7.4
2018-Mar-18 20:00N 56°03' W 002°19'4 7.7
2018-Mar-18 19:30N 56°05' W 002°25'4 8.7
2018-Mar-18 19:00N 56°06' W 002°32'5 9.7
2018-Mar-18 18:30N 56°06' W 002°41'611.5
2018-Mar-18 18:00N 56°05' W 002°51'612.8
2018-Mar-18 17:30N 56°03' W 003°02'5 9.6
2018-Mar-18 17:00N 56°02' W 003°11'612.9
2018-Mar-18 16:30N 56°01' W 003°22'11 0.3
2018-Mar-16 21:03N 56°02' W 003°42'0 0.1
2018-Mar-16 21:00N 56°02' W 003°42'7 4.5
2018-Mar-16 19:27N 56°01' W 003°29'512.2
2018-Mar-16 19:00N 56°01' W 003°19'713.0
2018-Mar-16 18:30N 56°03' W 003°08'713.4
2018-Mar-16 18:00N 56°03' W 002°56'1 1.5
2018-Mar-16 17:28N 56°03' W 002°55'0 0.0
2018-Mar-16 16:58N 56°03' W 002°55'0 0.0
2018-Mar-16 16:28N 56°03' W 002°55'0 0.0
2018-Mar-16 15:58N 56°03' W 002°55'0 0.0
2018-Mar-16 15:28N 56°03' W 002°55'0 0.0
2018-Mar-16 14:58N 56°03' W 002°55'0 0.0
2018-Mar-16 14:28N 56°03' W 002°55'0 0.0
2018-Mar-16 13:55N 56°03' W 002°55'0 0.0
2018-Mar-16 13:28N 56°03' W 002°55'0 0.0
2018-Mar-16 12:58N 56°03' W 002°55'0 0.0
2018-Mar-16 12:28N 56°03' W 002°55'0 0.0
2018-Mar-16 11:58N 56°03' W 002°55'0 0.0
2018-Mar-16 11:28N 56°03' W 002°55'0 0.0
2018-Mar-16 10:58N 56°03' W 002°55'0 0.0
2018-Mar-16 10:28N 56°03' W 002°55'0 0.0
2018-Mar-16 09:58N 56°03' W 002°55'0 0.0
2018-Mar-16 09:28N 56°03' W 002°55'0 0.0
2018-Mar-16 08:58N 56°03' W 002°55'0 0.0
2018-Mar-16 08:28N 56°03' W 002°55'0 0.0
2018-Mar-16 07:58N 56°03' W 002°55'0 0.0
2018-Mar-16 07:28N 56°03' W 002°55'0 0.0
2018-Mar-16 06:58N 56°03' W 002°55'0 0.0
2018-Mar-16 06:28N 56°03' W 002°55'0 0.0
2018-Mar-16 05:58N 56°03' W 002°55'0 0.1
2018-Mar-16 05:28N 56°03' W 002°55'0 0.0
2018-Mar-16 04:58N 56°03' W 002°55'0 0.0
2018-Mar-16 04:28N 56°03' W 002°55'0 0.0
2018-Mar-16 03:58N 56°03' W 002°55'0 0.0
2018-Mar-16 03:28N 56°03' W 002°55'0 0.0
2018-Mar-16 02:58N 56°03' W 002°55'0 0.0
2018-Mar-16 02:28N 56°03' W 002°55'0 0.0
2018-Mar-16 01:58N 56°03' W 002°55'0 0.0
2018-Mar-16 01:28N 56°03' W 002°55'0 0.0
2018-Mar-16 00:58N 56°03' W 002°55'0 0.0
2018-Mar-16 00:28N 56°03' W 002°55'0 0.0
2018-Mar-15 23:58N 56°03' W 002°55'0 0.0
2018-Mar-15 23:28N 56°03' W 002°55'0 0.0
2018-Mar-15 22:58N 56°03' W 002°55'0 0.0
2018-Mar-15 22:28N 56°03' W 002°55'0 0.0
2018-Mar-15 21:58N 56°03' W 002°55'0 0.0
2018-Mar-15 21:28N 56°03' W 002°55'0 0.0
2018-Mar-15 20:58N 56°03' W 002°55'0 0.0
2018-Mar-15 20:28N 56°03' W 002°55'0 0.0
2018-Mar-15 19:58N 56°03' W 002°55'0 0.0
2018-Mar-15 19:28N 56°03' W 002°55'0 0.0
2018-Mar-15 18:58N 56°03' W 002°55'0 0.0
2018-Mar-15 18:28N 56°03' W 002°55'0 0.0
2018-Mar-15 17:58N 56°03' W 002°55'0 0.0
2018-Mar-15 17:28N 56°03' W 002°55'0 0.0
2018-Mar-15 16:58N 56°03' W 002°55'0 0.0
2018-Mar-15 16:28N 56°03' W 002°55'0 0.0
2018-Mar-15 15:58N 56°03' W 002°55'0 0.0
2018-Mar-15 15:28N 56°03' W 002°55'0 0.0
2018-Mar-15 14:58N 56°03' W 002°55'0 0.0
2018-Mar-15 14:28N 56°03' W 002°55'0 0.0
2018-Mar-15 13:58N 56°03' W 002°55'0 0.0
2018-Mar-15 13:28N 56°03' W 002°55'0 0.0
2018-Mar-15 12:58N 56°03' W 002°55'0 0.0
2018-Mar-15 12:28N 56°03' W 002°55'0 0.0
2018-Mar-15 11:58N 56°03' W 002°55'0 0.0
2018-Mar-15 11:28N 56°03' W 002°55'0 0.0
2018-Mar-15 10:58N 56°03' W 002°55'0 0.0
2018-Mar-15 10:28N 56°03' W 002°55'0 0.0
2018-Mar-15 09:58N 56°03' W 002°55'0 0.0
2018-Mar-15 09:28N 56°03' W 002°55'0 0.0
2018-Mar-15 08:58N 56°03' W 002°55'0 0.2
2018-Mar-15 08:28N 56°03' W 002°55'4 9.6
2018-Mar-15 08:00N 56°06' W 002°49'713.4
2018-Mar-15 07:30N 56°07' W 002°38'713.8
2018-Mar-15 07:00N 56°05' W 002°26'714.1
2018-Mar-15 06:30N 56°03' W 002°14'714.1
2018-Mar-15 06:00N 55°59' W 002°03'714.2
2018-Mar-15 05:30N 55°55' W 001°52'714.1
2018-Mar-15 05:00N 55°51' W 001°42'714.1
2018-Mar-15 04:30N 55°47' W 001°32'713.4
2018-Mar-15 03:59N 55°43' W 001°21'1212.1
2018-Mar-15 02:57N 55°33' W 001°10'612.9
2018-Mar-15 02:29N 55°27' W 001°08'612.8
2018-Mar-15 02:00N 55°21' W 001°05'712.9
2018-Mar-15 01:30N 55°15' W 001°02'612.9
2018-Mar-15 01:00N 55°08' W 001°00'612.8
2018-Mar-15 00:30N 55°02' W 000°57'713.3
2018-Mar-15 00:00N 54°56' W 000°55'612.5
2018-Mar-14 23:30N 54°49' W 000°54'10 0.4
2018-Mar-13 20:35N 54°41' W 001°03'1 9.4
2018-Mar-13 20:29N 54°41' W 001°02'4 0.1
2018-Mar-12 16:54N 54°42' W 000°55'0 0.0
2018-Mar-12 14:01N 54°42' W 000°55'0 0.0
2018-Mar-12 14:00N 54°42' W 000°55'0 0.0
2018-Mar-12 13:30N 54°42' W 000°55'0 0.0
2018-Mar-12 13:00N 54°42' W 000°55'0 0.0
2018-Mar-12 09:45N 54°42' W 000°55'20 0.9
2018-Mar-11 11:34N 54°30' W 000°27'212.4
2018-Mar-11 11:26N 54°28' W 000°25'512.5
2018-Mar-11 11:00N 54°24' W 000°19'612.5
2018-Mar-11 10:30N 54°19' W 000°14'612.6
2018-Mar-11 10:00N 54°14' W 000°06'612.8
2018-Mar-11 09:30N 54°09' E 000°00'612.8
2018-Mar-11 09:00N 54°04' E 000°06'713.1
2018-Mar-11 08:30N 53°58' E 000°11'1912.7
2018-Mar-11 07:00N 53°40' E 000°23'713.6
2018-Mar-11 06:30N 53°34' E 000°17'6 9.1
2018-Mar-11 05:51N 53°33' E 000°08'513.3
2018-Mar-11 05:30N 53°35' E 000°01'613.1
2018-Mar-11 05:00N 53°38' W 000°09'  
Track history (hours):
 
Tides and Currents Weather Stations Pressure Air Temp Water Temp Dewpoint Dewpoint Depression Visibility Wind Speed Wind Dir Waves Ship Positions

Othello

Last reported at 2018-Mar-20 09:26 UTC. Time now 2018-Jun-20 05:35 UTC.
Position N 51°41' E 004°34'.
Warning: this ship's position is months out of date.

Length 104 m; draft 6.5 m.

Type: Tanker. MMSI: 253279000.

Date/timePositionNaut miles runAvg speedWind from/ knotsBaromVisibWave heightAir tempDewpointWater temp
2018-Mar-20 09:26N 51°41' E 004°34'0 0.0
2018-Mar-20 08:59N 51°41' E 004°34'0 0.0
2018-Mar-20 08:29N 51°41' E 004°34'0 0.0
2018-Mar-20 07:59N 51°41' E 004°34'0 0.0
2018-Mar-20 07:09N 51°41' E 004°34'0 1.0
2018-Mar-20 07:00N 51°42' E 004°34'3 6.0
2018-Mar-20 06:31N 51°44' E 004°38'5 9.7
2018-Mar-20 06:00N 51°48' E 004°35'5 9.6
2018-Mar-20 05:30N 51°50' E 004°28'510.7
2018-Mar-20 05:00N 51°52' E 004°20'5 9.3
2018-Mar-20 04:31N 51°55' E 004°14'714.6
2018-Mar-20 04:01N 51°59' E 004°04'714.1
2018-Mar-20 03:31N 52°00' E 003°53'4 8.4
2018-Mar-20 03:00N 52°01' E 003°46'510.2
2018-Mar-20 02:30N 52°04' E 003°40'611.1
2018-Mar-20 01:59N 52°07' E 003°31'611.0
2018-Mar-20 01:29N 52°09' E 003°23'510.5
2018-Mar-20 01:00N 52°12' E 003°16'510.9
2018-Mar-20 00:30N 52°15' E 003°09'611.0
2018-Mar-19 23:58N 52°19' E 003°01'511.0
2018-Mar-19 23:30N 52°21' E 002°54'4011.5
2018-Mar-19 20:00N 52°44' E 001°60'612.0
2018-Mar-19 19:30N 52°47' E 001°52'611.9
2018-Mar-19 19:00N 52°51' E 001°45'611.7
2018-Mar-19 18:30N 52°55' E 001°37'612.0
2018-Mar-19 18:00N 52°59' E 001°29'612.9
2018-Mar-19 17:30N 53°04' E 001°23'612.5
2018-Mar-19 17:00N 53°10' E 001°18'612.3
2018-Mar-19 16:30N 53°15' E 001°13'712.2
2018-Mar-19 15:56N 53°21' E 001°07'4711.0
2018-Mar-19 11:39N 53°55' E 000°12'210.9
2018-Mar-19 11:30N 53°56' E 000°11'510.8
2018-Mar-19 11:00N 54°01' E 000°06'510.7
2018-Mar-19 10:30N 54°06' E 000°02'5 9.7
2018-Mar-19 10:00N 54°10' W 000°03'510.1
2018-Mar-19 09:30N 54°14' W 000°08'510.8
2018-Mar-19 09:00N 54°18' W 000°13'510.9
2018-Mar-19 08:30N 54°23' W 000°19'611.2
2018-Mar-19 08:00N 54°27' W 000°24'611.1
2018-Mar-19 07:30N 54°32' W 000°30'2111.3
2018-Mar-19 05:37N 54°48' W 000°54'111.5
2018-Mar-19 05:30N 54°49' W 000°55'611.5
2018-Mar-19 05:00N 54°53' W 001°02'611.7
2018-Mar-19 04:30N 54°58' W 001°07'612.2
2018-Mar-19 04:00N 55°04' W 001°10'611.9
2018-Mar-19 03:30N 55°10' W 001°13'611.7
2018-Mar-19 03:00N 55°15' W 001°17'611.6
2018-Mar-19 02:30N 55°21' W 001°20'611.6
2018-Mar-19 02:00N 55°26' W 001°23'611.3
2018-Mar-19 01:30N 55°32' W 001°26'611.1
2018-Mar-19 01:00N 55°37' W 001°29'5 9.4
2018-Mar-19 00:30N 55°41' W 001°33'4 8.3
2018-Mar-19 00:00N 55°44' W 001°39'4 8.2
2018-Mar-18 23:30N 55°47' W 001°44'4 8.1
2018-Mar-18 23:00N 55°50' W 001°49'4 7.9
2018-Mar-18 22:30N 55°52' W 001°54'3 6.9
2018-Mar-18 22:00N 55°55' W 001°58'3 6.7
2018-Mar-18 21:30N 55°57' W 002°03'4 7.0
2018-Mar-18 21:00N 55°59' W 002°08'4 7.3
2018-Mar-18 20:30N 56°01' W 002°13'4 7.4
2018-Mar-18 20:00N 56°03' W 002°19'4 7.7
2018-Mar-18 19:30N 56°05' W 002°25'4 8.7
2018-Mar-18 19:00N 56°06' W 002°32'5 9.7
2018-Mar-18 18:30N 56°06' W 002°41'611.5
2018-Mar-18 18:00N 56°05' W 002°51'612.8
2018-Mar-18 17:30N 56°03' W 003°02'5 9.6
2018-Mar-18 17:00N 56°02' W 003°11'612.9
2018-Mar-18 16:30N 56°01' W 003°22'11 0.3
2018-Mar-16 21:03N 56°02' W 003°42'0 0.1
2018-Mar-16 21:00N 56°02' W 003°42'7 4.5
2018-Mar-16 19:27N 56°01' W 003°29'512.2
2018-Mar-16 19:00N 56°01' W 003°19'713.0
2018-Mar-16 18:30N 56°03' W 003°08'713.4
2018-Mar-16 18:00N 56°03' W 002°56'1 1.5
2018-Mar-16 17:28N 56°03' W 002°55'0 0.0
2018-Mar-16 16:58N 56°03' W 002°55'0 0.0
2018-Mar-16 16:28N 56°03' W 002°55'0 0.0
2018-Mar-16 15:58N 56°03' W 002°55'0 0.0
2018-Mar-16 15:28N 56°03' W 002°55'0 0.0
2018-Mar-16 14:58N 56°03' W 002°55'0 0.0
2018-Mar-16 14:28N 56°03' W 002°55'0 0.0
2018-Mar-16 13:55N 56°03' W 002°55'0 0.0
2018-Mar-16 13:28N 56°03' W 002°55'0 0.0
2018-Mar-16 12:58N 56°03' W 002°55'0 0.0
2018-Mar-16 12:28N 56°03' W 002°55'0 0.0
2018-Mar-16 11:58N 56°03' W 002°55'0 0.0
2018-Mar-16 11:28N 56°03' W 002°55'0 0.0
2018-Mar-16 10:58N 56°03' W 002°55'0 0.0
2018-Mar-16 10:28N 56°03' W 002°55'0 0.0
2018-Mar-16 09:58N 56°03' W 002°55'0 0.0
2018-Mar-16 09:28N 56°03' W 002°55'0 0.0
2018-Mar-16 08:58N 56°03' W 002°55'0 0.0
2018-Mar-16 08:28N 56°03' W 002°55'0 0.0
2018-Mar-16 07:58N 56°03' W 002°55'0 0.0
2018-Mar-16 07:28N 56°03' W 002°55'0 0.0
2018-Mar-16 06:58N 56°03' W 002°55'0 0.0
2018-Mar-16 06:28N 56°03' W 002°55'0 0.0
2018-Mar-16 05:58N 56°03' W 002°55'0 0.1
2018-Mar-16 05:28N 56°03' W 002°55'0 0.0
2018-Mar-16 04:58N 56°03' W 002°55'0 0.0
2018-Mar-16 04:28N 56°03' W 002°55'0 0.0
2018-Mar-16 03:58N 56°03' W 002°55'0 0.0
2018-Mar-16 03:28N 56°03' W 002°55'0 0.0
2018-Mar-16 02:58N 56°03' W 002°55'0 0.0
2018-Mar-16 02:28N 56°03' W 002°55'0 0.0
2018-Mar-16 01:58N 56°03' W 002°55'0 0.0
2018-Mar-16 01:28N 56°03' W 002°55'0 0.0
2018-Mar-16 00:58N 56°03' W 002°55'0 0.0
2018-Mar-16 00:28N 56°03' W 002°55'0 0.0
2018-Mar-15 23:58N 56°03' W 002°55'0 0.0
2018-Mar-15 23:28N 56°03' W 002°55'0 0.0
2018-Mar-15 22:58N 56°03' W 002°55'0 0.0
2018-Mar-15 22:28N 56°03' W 002°55'0 0.0
2018-Mar-15 21:58N 56°03' W 002°55'0 0.0
2018-Mar-15 21:28N 56°03' W 002°55'0 0.0
2018-Mar-15 20:58N 56°03' W 002°55'0 0.0
2018-Mar-15 20:28N 56°03' W 002°55'0 0.0
2018-Mar-15 19:58N 56°03' W 002°55'0 0.0
2018-Mar-15 19:28N 56°03' W 002°55'0 0.0
2018-Mar-15 18:58N 56°03' W 002°55'0 0.0
2018-Mar-15 18:28N 56°03' W 002°55'0 0.0
2018-Mar-15 17:58N 56°03' W 002°55'0 0.0
2018-Mar-15 17:28N 56°03' W 002°55'0 0.0
2018-Mar-15 16:58N 56°03' W 002°55'0 0.0
2018-Mar-15 16:28N 56°03' W 002°55'0 0.0
2018-Mar-15 15:58N 56°03' W 002°55'0 0.0
2018-Mar-15 15:28N 56°03' W 002°55'0 0.0
2018-Mar-15 14:58N 56°03' W 002°55'0 0.0
2018-Mar-15 14:28N 56°03' W 002°55'0 0.0
2018-Mar-15 13:58N 56°03' W 002°55'0 0.0
2018-Mar-15 13:28N 56°03' W 002°55'0 0.0
2018-Mar-15 12:58N 56°03' W 002°55'0 0.0
2018-Mar-15 12:28N 56°03' W 002°55'0 0.0
2018-Mar-15 11:58N 56°03' W 002°55'0 0.0
2018-Mar-15 11:28N 56°03' W 002°55'0 0.0
2018-Mar-15 10:58N 56°03' W 002°55'0 0.0
2018-Mar-15 10:28N 56°03' W 002°55'0 0.0
2018-Mar-15 09:58N 56°03' W 002°55'0 0.0
2018-Mar-15 09:28N 56°03' W 002°55'0 0.0
2018-Mar-15 08:58N 56°03' W 002°55'0 0.2
2018-Mar-15 08:28N 56°03' W 002°55'4 9.6
2018-Mar-15 08:00N 56°06' W 002°49'713.4
2018-Mar-15 07:30N 56°07' W 002°38'713.8
2018-Mar-15 07:00N 56°05' W 002°26'714.1
2018-Mar-15 06:30N 56°03' W 002°14'714.1
2018-Mar-15 06:00N 55°59' W 002°03'714.2
2018-Mar-15 05:30N 55°55' W 001°52'714.1
2018-Mar-15 05:00N 55°51' W 001°42'714.1
2018-Mar-15 04:30N 55°47' W 001°32'713.4
2018-Mar-15 03:59N 55°43' W 001°21'1212.1
2018-Mar-15 02:57N 55°33' W 001°10'612.9
2018-Mar-15 02:29N 55°27' W 001°08'612.8
2018-Mar-15 02:00N 55°21' W 001°05'712.9
2018-Mar-15 01:30N 55°15' W 001°02'612.9
2018-Mar-15 01:00N 55°08' W 001°00'612.8
2018-Mar-15 00:30N 55°02' W 000°57'713.3
2018-Mar-15 00:00N 54°56' W 000°55'612.5
2018-Mar-14 23:30N 54°49' W 000°54'10 0.4
2018-Mar-13 20:35N 54°41' W 001°03'1 9.4
2018-Mar-13 20:29N 54°41' W 001°02'4 0.1
2018-Mar-12 16:54N 54°42' W 000°55'0 0.0
2018-Mar-12 14:01N 54°42' W 000°55'0 0.0
2018-Mar-12 14:00N 54°42' W 000°55'0 0.0
2018-Mar-12 13:30N 54°42' W 000°55'0 0.0
2018-Mar-12 13:00N 54°42' W 000°55'0 0.0
2018-Mar-12 09:45N 54°42' W 000°55'20 0.9
2018-Mar-11 11:34N 54°30' W 000°27'212.4
2018-Mar-11 11:26N 54°28' W 000°25'512.5
2018-Mar-11 11:00N 54°24' W 000°19'612.5
2018-Mar-11 10:30N 54°19' W 000°14'612.6
2018-Mar-11 10:00N 54°14' W 000°06'612.8
2018-Mar-11 09:30N 54°09' E 000°00'612.8
2018-Mar-11 09:00N 54°04' E 000°06'713.1
2018-Mar-11 08:30N 53°58' E 000°11'1912.7
2018-Mar-11 07:00N 53°40' E 000°23'713.6
2018-Mar-11 06:30N 53°34' E 000°17'6 9.1
2018-Mar-11 05:51N 53°33' E 000°08'513.3
2018-Mar-11 05:30N 53°35' E 000°01'613.1
2018-Mar-11 05:00N 53°38' W 000°09'  

Dump ship's entire track history